Lloc web orientat als practicants d'activitats
Centenari de l'SMC: 100 anys mirant el cel

Dades de l'estació automàtica Algerri

?
?

Resum diari

22:30 TU
Dades diàries de l'estació meteorològica
Temperatura mitjana 11.2 °C
Temperatura màxima 18.4 °C 14:33 TU
Temperatura mínima 2.4 °C 5:35 TU
Humitat relativa mitjana 60%
Precipitació acumulada 0.0 mm
Ratxa màxima del vent (2 m) 18.4 km/h - 198º 13:22 TU
Irradiació solar global 22.7 MJ/m2

El tram horari està expressat en Temps Universal (TU). Cal sumar una hora en horari d'hivern i dues en horari d'estiu per passar a l'hora oficial.

Algerri

Metadades estació meteorològica
Municipi Algerri
Comarca Noguera
Altitud 301 m
Data alta 13.12.2000
Estat actual Operativa
Dades de període
Període
TU
TM
°C
TX
°C
TN
°C
HRM
%
PPT
mm
VVM (2 m)
km/h
DVM (2 m)
graus
VVX (2 m)
km/h
RS
W/m2
00:00 - 00:30 5.0 5.5 4.8 76 0.0 3.6 340 6.5 0
00:30 - 01:00 5.8 5.9 5.6 71 0.0 2.5 342 4.0 0
01:00 - 01:30 5.9 6.2 5.4 71 0.0 4.3 336 9.4 0
01:30 - 02:00 6.1 6.5 5.2 71 0.0 4.0 339 8.3 0
02:00 - 02:30 6.8 7.1 6.4 66 0.0 2.9 286 6.1 0
02:30 - 03:00 6.2 7.1 5.8 71 0.0 1.1 338 3.6 0
03:00 - 03:30 5.6 6.1 5.0 74 0.0 1.4 306 4.3 0
03:30 - 04:00 4.4 4.9 4.1 79 0.0 2.9 327 6.1 0
04:00 - 04:30 3.9 4.5 3.5 78 0.0 3.6 321 7.6 0
04:30 - 05:00 3.8 3.9 3.5 78 0.0 3.2 327 6.1 0
05:00 - 05:30 3.7 4.0 3.2 77 0.0 3.6 330 5.4 2
05:30 - 06:00 3.2 3.8 2.4 80 0.0 3.2 331 6.8 44
06:00 - 06:30 4.5 5.3 3.9 78 0.0 3.6 337 7.6 123
06:30 - 07:00 7.3 8.4 5.4 71 0.0 0.7 172 3.2 219
07:00 - 07:30 8.2 8.5 7.7 67 0.0 3.6 165 7.9 328
07:30 - 08:00 8.7 9.0 8.5 70 0.0 5.4 145 10.8 434
08:00 - 08:30 9.2 9.8 8.9 69 0.0 5.8 135 10.8 530
08:30 - 09:00 10.4 11.0 9.8 64 0.0 6.5 132 13.3 618
09:00 - 09:30 11.3 11.7 10.7 61 0.0 6.8 135 14.8 697
09:30 - 10:00 12.1 12.6 11.8 57 0.0 6.8 146 13.3 780
10:00 - 10:30 12.7 13.5 12.2 50 0.0 5.4 140 14.4 806
10:30 - 11:00 13.6 14.3 13.0 46 0.0 5.0 140 10.1 878
11:00 - 11:30 14.2 14.4 13.7 42 0.0 3.6 70 11.2 902
11:30 - 12:00 15.3 15.8 14.6 40 0.0 5.0 176 13.7 925
12:00 - 12:30 15.9 16.5 15.4 37 0.0 4.7 179 11.5 888
12:30 - 13:00 16.7 17.2 15.9 36 0.0 4.3 160 14.8 900
13:00 - 13:30 16.8 17.3 16.4 32 0.0 6.5 205 18.4 816
13:30 - 14:00 17.3 17.7 16.7 31 0.0 5.8 205 12.6 740
14:00 - 14:30 17.4 17.9 17.0 27 0.0 6.8 217 14.4 658
14:30 - 15:00 17.8 18.4 17.2 27 0.0 6.5 240 15.5 504
15:00 - 15:30 17.1 17.3 17.0 28 0.0 4.7 249 11.9 255
15:30 - 16:00 16.8 17.0 16.6 29 0.0 4.7 263 10.4 181
16:00 - 16:30 16.7 16.9 16.4 34 0.0 4.0 298 10.1 149
16:30 - 17:00 16.5 16.9 16.2 34 0.0 4.3 341 9.4 124
17:00 - 17:30 16.2 16.4 15.9 36 0.0 6.1 353 10.1 123
17:30 - 18:00 16.0 16.2 15.9 37 0.0 2.5 351 5.4 47
18:00 - 18:30 14.5 16.0 14.0 60 0.0 1.4 103 5.8 7
18:30 - 19:00 13.7 14.0 13.1 69 0.0 1.4 71 6.1 0
19:00 - 19:30 12.8 13.0 12.7 76 0.0 4.0 79 6.8 0
19:30 - 20:00 12.6 12.9 12.2 77 0.0 4.0 70 6.5 0
20:00 - 20:30 12.4 12.5 12.1 78 0.0 4.0 70 6.1 0
20:30 - 21:00 12.1 12.4 11.8 80 0.0 4.7 87 10.1 0
21:00 - 21:30 12.4 12.5 12.1 78 0.0 4.3 58 9.0 0
21:30 - 22:00 11.9 12.1 11.7 81 0.0 4.0 65 6.5 0
22:00 - 22:30 11.8 11.8 11.7 82 0.0 2.9 66 5.4 0
22:30 - 23:00 11.5 11.7 11.4 84 0.0 3.6 57 7.2 0
23:00 - 23:30 (s/d) (s/d) (s/d) (s/d) (s/d) (s/d) (s/d) (s/d) (s/d)

Les dades en taronja només han passat un control de qualitat automàtic. Resta pendent la seva validació definitiva.